Time;durP1;ratioP1;P1;durP2;ratioP2;P2;SDS_P1;SDS_P2;PMS_P1;PMS_P2;Temp;Humidity;BMP_temperature;BMP_pressure;BME280_temperature;BME280_humidity;BME280_pressure;Samples;Min_cycle;Max_cycle;Signal;HPM_P1;HPM_P2
2022/08/26 00:01:26;;;;;;;25.55;22.02;;;23.40;99.90;;;;;;5032224;28;20046;-71
2022/08/26 00:03:52;;;;;;;24.23;19.83;;;23.30;99.90;;;;;;5030209;28;20045;-70
2022/08/26 00:06:18;;;;;;;27.83;22.77;;;23.30;99.90;;;;;;5032273;28;20048;-70
2022/08/26 00:08:45;;;;;;;34.60;22.27;;;23.20;99.90;;;;;;5026420;28;20120;-70
2022/08/26 00:11:11;;;;;;;30.30;22.92;;;23.20;99.90;;;;;;5032513;28;20045;-70
2022/08/26 00:13:38;;;;;;;29.35;22.35;;;23.10;99.90;;;;;;5031882;28;20077;-71
2022/08/26 00:16:06;;;;;;;30.67;24.23;;;23.00;99.90;;;;;;5032275;28;20042;-71
2022/08/26 00:18:31;;;;;;;31.27;23.20;;;23.00;99.90;;;;;;5032149;28;20448;-71
2022/08/26 00:20:57;;;;;;;28.02;22.42;;;23.00;99.90;;;;;;5032535;28;20124;-71
2022/08/26 00:23:23;;;;;;;24.73;20.40;;;23.00;99.90;;;;;;5014553;28;20382;-70
2022/08/26 00:25:49;;;;;;;29.27;21.00;;;23.00;99.90;;;;;;5031004;28;20056;-70
2022/08/26 00:28:15;;;;;;;27.17;19.75;;;23.00;99.90;;;;;;5032206;28;20505;-70
2022/08/26 00:30:40;;;;;;;29.13;19.58;;;22.90;99.90;;;;;;5031842;28;20560;-70
2022/08/26 00:33:06;;;;;;;28.13;19.75;;;23.00;99.90;;;;;;5031514;28;20132;-71
2022/08/26 00:35:33;;;;;;;26.85;18.92;;;23.00;99.90;;;;;;5030877;28;20072;-70
2022/08/26 00:38:00;;;;;;;27.67;19.70;;;22.90;99.90;;;;;;5029621;28;20448;-70
2022/08/26 00:40:34;;;;;;;25.15;18.20;;;22.80;99.90;;;;;;5030953;28;20350;-71
2022/08/26 00:43:01;;;;;;;25.75;18.05;;;22.80;99.90;;;;;;5032035;28;20121;-70
2022/08/26 00:45:38;;;;;;;27.67;17.90;;;23.10;99.90;;;;;;5032102;28;20088;-71
2022/08/26 00:48:06;;;;;;;25.80;17.55;;;22.70;99.90;;;;;;5031780;28;20347;-70
2022/08/26 00:50:37;;;;;;;25.67;15.85;;;22.70;99.90;;;;;;5031791;28;20528;-71
2022/08/26 00:53:20;;;;;;;26.70;16.33;;;22.60;99.90;;;;;;5031860;28;20393;-70
2022/08/26 00:55:59;;;;;;;27.92;16.20;;;22.70;99.90;;;;;;5030861;28;20045;-70
2022/08/26 00:58:28;;;;;;;30.05;16.60;;;22.60;99.90;;;;;;5030692;28;20052;-70
2022/08/26 01:00:54;;;;;;;27.67;18.13;;;22.60;99.90;;;;;;5032062;28;20176;-70
2022/08/26 01:03:24;;;;;;;29.83;18.02;;;22.60;99.90;;;;;;5031665;28;20068;-71
2022/08/26 01:05:54;;;;;;;27.17;17.95;;;22.50;99.90;;;;;;5028772;28;20044;-70
2022/08/26 01:08:20;;;;;;;25.00;18.15;;;22.60;99.90;;;;;;5031670;28;20063;-71
2022/08/26 01:10:46;;;;;;;27.23;18.25;;;22.60;99.90;;;;;;5031616;28;20053;-70
2022/08/26 01:13:12;;;;;;;29.33;18.98;;;22.60;99.90;;;;;;5031589;28;20037;-70
2022/08/26 01:15:49;;;;;;;26.33;18.02;;;22.50;99.90;;;;;;5029546;28;20114;-71
2022/08/26 01:18:15;;;;;;;30.20;17.75;;;22.50;99.90;;;;;;5035360;28;20048;-70
2022/08/26 01:20:47;;;;;;;34.40;18.90;;;22.40;99.90;;;;;;5032651;28;20045;-71
2022/08/26 01:23:13;;;;;;;30.98;18.88;;;22.40;99.90;;;;;;5034583;28;20054;-70
2022/08/26 01:25:44;;;;;;;30.23;19.42;;;22.40;99.90;;;;;;5035076;28;20104;-71
2022/08/26 01:28:15;;;;;;;27.83;18.35;;;22.40;99.90;;;;;;5035422;28;20053;-70
2022/08/26 01:30:41;;;;;;;28.38;18.73;;;22.40;99.90;;;;;;5034566;28;20045;-71
2022/08/26 01:33:14;;;;;;;31.13;18.85;;;22.30;99.90;;;;;;5034260;28;20052;-70
2022/08/26 01:35:41;;;;;;;27.08;18.13;;;22.30;99.90;;;;;;5033138;28;20060;-71
2022/08/26 01:38:08;;;;;;;29.63;17.90;;;22.30;99.90;;;;;;5034923;28;20077;-70
2022/08/26 01:40:37;;;;;;;29.70;19.25;;;22.30;99.90;;;;;;5034861;28;20046;-71
2022/08/26 01:43:06;;;;;;;32.38;18.25;;;22.30;99.90;;;;;;5033675;28;20107;-70
2022/08/26 01:45:35;;;;;;;32.40;18.92;;;22.20;99.90;;;;;;5033332;28;20049;-70
2022/08/26 01:48:06;;;;;;;28.33;17.58;;;22.60;99.90;;;;;;5034509;28;20038;-71
2022/08/26 01:50:34;;;;;;;31.48;17.98;;;22.10;99.90;;;;;;5034554;28;20065;-71
2022/08/26 01:53:09;;;;;;;29.50;17.42;;;22.10;99.90;;;;;;5034310;28;20048;-70
2022/08/26 01:55:37;;;;;;;31.60;18.35;;;22.10;99.90;;;;;;5034041;28;20091;-71
2022/08/26 01:58:08;;;;;;;31.95;18.83;;;22.10;99.90;;;;;;5034285;28;20069;-71
2022/08/26 02:00:34;;;;;;;34.35;18.98;;;22.10;99.90;;;;;;5033094;28;20087;-71
2022/08/26 02:03:15;;;;;;;35.80;19.73;;;22.10;99.90;;;;;;5034399;28;20515;-70
2022/08/26 02:05:46;;;;;;;26.60;17.23;;;22.20;99.90;;;;;;5032828;28;20041;-71
2022/08/26 02:08:13;;;;;;;33.25;19.95;;;22.10;99.90;;;;;;5023902;28;20105;-70
2022/08/26 02:10:41;;;;;;;37.60;19.05;;;22.10;99.90;;;;;;5016299;28;20057;-71
2022/08/26 02:13:09;;;;;;;27.83;18.30;;;22.10;99.90;;;;;;5034006;28;20091;-71
2022/08/26 02:15:35;;;;;;;32.17;18.55;;;22.10;99.90;;;;;;5033536;28;20402;-71
2022/08/26 02:18:03;;;;;;;31.70;17.58;;;22.10;99.90;;;;;;5034039;28;20052;-70
2022/08/26 02:20:29;;;;;;;29.40;18.42;;;22.10;99.90;;;;;;5025403;28;20049;-71
2022/08/26 02:22:55;;;;;;;33.55;18.02;;;22.10;99.90;;;;;;5035080;28;20490;-71
2022/08/26 02:25:33;;;;;;;36.45;21.08;;;22.20;99.90;;;;;;5049913;28;20038;-72
2022/08/26 02:27:59;;;;;;;32.22;19.42;;;22.00;99.90;;;;;;5041320;28;20083;-70
2022/08/26 02:30:31;;;;;;;32.60;18.02;;;22.00;99.90;;;;;;5039274;28;20046;-71
2022/08/26 02:33:03;;;;;;;33.05;18.05;;;22.00;99.90;;;;;;5033328;28;20073;-70
2022/08/26 02:35:31;;;;;;;35.00;19.48;;;22.00;99.90;;;;;;5033628;28;20048;-71
2022/08/26 02:37:57;;;;;;;29.10;18.75;;;21.90;99.90;;;;;;5035813;28;20041;-71
2022/08/26 02:40:27;;;;;;;33.78;19.02;;;22.10;99.90;;;;;;5047984;28;20042;-71
2022/08/26 02:42:52;;;;;;;34.22;19.08;;;22.00;99.90;;;;;;5032589;28;20052;-71
2022/08/26 02:45:18;;;;;;;31.38;18.30;;;22.00;99.90;;;;;;5034802;28;20045;-71
2022/08/26 02:47:44;;;;;;;27.05;17.85;;;22.00;99.90;;;;;;5031971;28;20048;-70
2022/08/26 02:50:10;;;;;;;30.40;18.23;;;22.00;99.90;;;;;;5033042;28;20089;-70
2022/08/26 02:52:36;;;;;;;32.22;17.55;;;22.00;99.90;;;;;;5035523;28;20069;-71
2022/08/26 02:55:03;;;;;;;31.70;17.27;;;22.00;99.90;;;;;;5052802;28;20907;-71
2022/08/26 02:57:29;;;;;;;30.90;17.52;;;21.90;99.90;;;;;;5046462;28;20414;-71
2022/08/26 02:59:56;;;;;;;29.70;17.40;;;21.90;99.90;;;;;;5033545;28;20037;-70
2022/08/26 03:02:22;;;;;;;31.42;17.60;;;22.20;99.90;;;;;;5031094;28;20089;-71
2022/08/26 03:04:48;;;;;;;33.25;18.30;;;21.90;99.90;;;;;;5031282;28;20068;-71
2022/08/26 03:07:14;;;;;;;27.08;16.15;;;21.90;99.90;;;;;;5032500;28;20045;-71
2022/08/26 03:09:39;;;;;;;35.10;17.98;;;21.90;99.90;;;;;;5017688;28;20122;-71
2022/08/26 03:12:05;;;;;;;29.40;17.17;;;22.00;99.90;;;;;;5031810;28;20077;-71
2022/08/26 03:14:31;;;;;;;34.28;16.55;;;21.90;99.90;;;;;;5031107;28;20036;-71
2022/08/26 03:16:56;;;;;;;31.73;16.90;;;21.90;99.90;;;;;;5031406;28;20033;-71
2022/08/26 03:19:24;;;;;;;33.83;16.55;;;21.90;99.90;;;;;;5030979;28;20025;-70
2022/08/26 03:21:51;;;;;;;31.27;16.67;;;22.00;99.90;;;;;;5029705;28;20499;-71
2022/08/26 03:24:18;;;;;;;29.67;15.82;;;21.90;99.90;;;;;;5026378;28;20059;-71
2022/08/26 03:26:44;;;;;;;32.30;16.15;;;21.80;99.90;;;;;;5029589;28;20083;-71
2022/08/26 03:31:54;;;;;;;26.15;15.05;;;21.80;99.90;;;;;;5029761;28;20041;-70
2022/08/26 03:34:21;;;;;;;30.75;15.05;;;21.80;99.90;;;;;;5036641;28;20090;-71
2022/08/26 03:36:47;;;;;;;30.58;15.18;;;21.80;99.90;;;;;;5028022;28;20091;-71
2022/08/26 03:39:13;;;;;;;28.77;14.80;;;21.80;99.90;;;;;;5018985;28;20073;-71
2022/08/26 03:41:39;;;;;;;29.15;15.55;;;21.80;99.90;;;;;;5028194;28;20064;-71
2022/08/26 03:44:09;;;;;;;32.53;14.25;;;21.80;99.90;;;;;;5032049;28;20080;-71
2022/08/26 03:46:36;;;;;;;26.83;15.55;;;21.90;99.90;;;;;;5031195;28;20098;-70
2022/08/26 03:49:04;;;;;;;29.80;15.23;;;21.80;99.90;;;;;;5030126;28;20057;-71
2022/08/26 03:51:31;;;;;;;31.17;13.50;;;21.80;99.90;;;;;;5028628;28;20049;-71
2022/08/26 03:53:59;;;;;;;31.75;13.82;;;21.80;99.90;;;;;;5029755;28;20044;-71
2022/08/26 03:56:26;;;;;;;28.75;13.07;;;21.80;99.90;;;;;;5030392;28;20106;-71
2022/08/26 03:58:52;;;;;;;28.17;11.93;;;21.70;99.90;;;;;;5028617;28;20038;-71
2022/08/26 04:01:18;;;;;;;24.65;10.98;;;21.70;99.90;;;;;;5030452;28;20037;-71
2022/08/26 04:03:56;;;;;;;24.27;12.55;;;21.70;99.90;;;;;;5031087;28;20409;-70
2022/08/26 04:06:41;;;;;;;25.70;12.32;;;21.70;99.90;;;;;;5030879;28;20144;-71
2022/08/26 04:09:10;;;;;;;25.38;12.15;;;21.80;99.90;;;;;;5042822;28;20042;-70
2022/08/26 04:11:38;;;;;;;24.95;12.80;;;21.70;99.90;;;;;;5031060;28;20179;-71
2022/08/26 04:14:06;;;;;;;22.63;11.35;;;21.70;99.90;;;;;;5031663;28;20092;-71
2022/08/26 04:16:33;;;;;;;24.35;12.57;;;21.80;99.90;;;;;;5032072;28;20048;-71
2022/08/26 04:18:58;;;;;;;20.52;12.10;;;21.80;99.90;;;;;;5032503;28;20120;-71
2022/08/26 04:21:25;;;;;;;24.85;12.35;;;21.70;99.90;;;;;;5031831;28;20124;-70
2022/08/26 04:23:51;;;;;;;20.67;12.10;;;21.70;99.90;;;;;;5031869;28;20053;-71
2022/08/26 04:26:18;;;;;;;24.33;11.32;;;21.70;99.90;;;;;;5031507;28;20037;-70
2022/08/26 04:28:45;;;;;;;22.55;11.70;;;21.60;99.90;;;;;;5031362;28;20494;-70
2022/08/26 04:31:15;;;;;;;22.27;11.02;;;21.70;99.90;;;;;;5029807;28;20041;-71
2022/08/26 04:33:42;;;;;;;22.15;11.50;;;21.60;99.90;;;;;;5031206;28;20034;-71
2022/08/26 04:36:10;;;;;;;20.33;12.05;;;21.60;99.90;;;;;;5030599;28;20037;-71
2022/08/26 04:38:35;;;;;;;20.00;11.07;;;21.60;99.90;;;;;;5036500;28;20041;-71
2022/08/26 04:41:02;;;;;;;26.48;11.85;;;21.60;99.90;;;;;;5030214;28;20375;-71
2022/08/26 04:43:29;;;;;;;23.45;11.32;;;21.60;99.90;;;;;;5027159;28;20099;-71
2022/08/26 04:46:00;;;;;;;22.05;12.35;;;21.50;99.90;;;;;;5037505;28;20118;-70
2022/08/26 04:48:29;;;;;;;22.10;11.70;;;21.50;99.90;;;;;;5032378;28;20573;-71
2022/08/26 04:50:55;;;;;;;25.73;12.25;;;21.50;99.90;;;;;;5034401;28;20057;-71
2022/08/26 04:53:21;;;;;;;21.05;10.82;;;21.50;99.90;;;;;;5034535;28;20405;-71
2022/08/26 04:55:46;;;;;;;26.33;11.65;;;21.50;99.90;;;;;;5035917;28;20497;-71
2022/08/26 04:58:17;;;;;;;28.30;12.52;;;21.50;99.90;;;;;;5035165;28;20095;-71
2022/08/26 05:00:46;;;;;;;26.35;12.07;;;21.50;99.90;;;;;;5035792;28;20045;-71
2022/08/26 05:03:12;;;;;;;27.35;12.27;;;21.50;99.90;;;;;;5035757;28;20096;-71
2022/08/26 05:05:42;;;;;;;23.25;12.15;;;21.50;99.90;;;;;;5052073;28;20049;-70
2022/08/26 05:08:10;;;;;;;31.98;13.10;;;21.40;99.90;;;;;;5055422;28;20045;-71
2022/08/26 05:10:45;;;;;;;22.38;11.52;;;21.40;99.90;;;;;;5055644;28;20052;-70
2022/08/26 05:13:16;;;;;;;24.65;11.82;;;21.50;99.90;;;;;;5036650;28;20421;-70
2022/08/26 05:15:43;;;;;;;24.88;10.90;;;21.40;99.90;;;;;;5035579;28;20041;-70
2022/08/26 05:18:09;;;;;;;24.45;11.57;;;21.50;99.90;;;;;;5034015;28;20124;-69
2022/08/26 05:20:43;;;;;;;24.15;11.13;;;21.50;99.90;;;;;;5034777;28;20078;-70
2022/08/26 05:23:09;;;;;;;24.60;11.10;;;21.60;99.90;;;;;;5035260;28;20068;-70
2022/08/26 05:25:40;;;;;;;29.40;12.00;;;21.50;99.90;;;;;;5034909;28;20159;-70
2022/08/26 05:28:11;;;;;;;22.20;11.27;;;21.60;99.90;;;;;;5034440;28;20049;-69
2022/08/26 05:30:38;;;;;;;27.35;11.68;;;21.60;99.90;;;;;;5037783;28;20460;-70
2022/08/26 05:33:05;;;;;;;29.65;11.95;;;21.60;99.90;;;;;;5033606;28;20457;-70
2022/08/26 05:35:32;;;;;;;22.05;11.32;;;21.70;99.90;;;;;;5032004;28;20046;-70
2022/08/26 05:37:59;;;;;;;24.35;11.23;;;21.50;99.90;;;;;;5033636;28;20044;-70
2022/08/26 05:40:27;;;;;;;23.95;10.38;;;21.50;99.90;;;;;;5034638;28;20045;-71
2022/08/26 05:42:53;;;;;;;32.03;11.32;;;21.50;99.90;;;;;;5030773;28;20044;-70
2022/08/26 05:45:22;;;;;;;26.35;10.02;;;21.60;99.90;;;;;;5032708;28;20509;-71
2022/08/26 05:47:47;;;;;;;22.23;10.02;;;21.60;99.90;;;;;;5031514;28;20539;-69
2022/08/26 05:50:13;;;;;;;23.27;10.20;;;21.60;99.90;;;;;;5030488;28;20054;-69
2022/08/26 05:52:38;;;;;;;27.65;10.18;;;21.50;99.90;;;;;;5033586;28;20059;-70
2022/08/26 05:55:04;;;;;;;26.05;9.40;;;21.60;99.90;;;;;;5033725;28;20104;-69
2022/08/26 05:57:30;;;;;;;23.13;9.18;;;21.60;99.90;;;;;;5033450;28;20041;-69
2022/08/26 05:59:56;;;;;;;25.42;9.55;;;21.90;99.90;;;;;;5032912;28;20547;-69
2022/08/26 06:02:22;;;;;;;26.25;8.65;;;21.70;99.90;;;;;;5034464;28;20045;-69
2022/08/26 06:04:47;;;;;;;21.80;8.82;;;21.60;99.90;;;;;;5040346;28;20037;-69
2022/08/26 06:07:15;;;;;;;25.10;8.57;;;21.70;99.90;;;;;;5033423;28;20080;-69
2022/08/26 06:09:41;;;;;;;19.35;8.60;;;21.70;99.90;;;;;;5030647;28;20497;-69
2022/08/26 06:12:07;;;;;;;22.92;8.15;;;21.70;99.90;;;;;;5033067;28;20042;-69
2022/08/26 06:14:34;;;;;;;19.17;8.35;;;21.70;99.90;;;;;;5045507;28;20055;-69
2022/08/26 06:17:00;;;;;;;21.70;7.95;;;21.70;99.90;;;;;;5028520;28;20091;-69
2022/08/26 06:19:26;;;;;;;18.85;7.90;;;21.70;99.90;;;;;;5034444;28;20045;-69
2022/08/26 06:21:51;;;;;;;18.15;8.15;;;21.70;99.90;;;;;;5031426;28;20041;-69
2022/08/26 06:27:04;;;;;;;21.25;8.23;;;21.80;99.90;;;;;;5038241;28;20048;-69
2022/08/26 06:29:33;;;;;;;21.05;8.30;;;21.80;99.90;;;;;;5054273;28;20410;-69
2022/08/26 06:32:00;;;;;;;18.40;7.80;;;21.80;99.90;;;;;;5053891;28;20132;-69
2022/08/26 06:34:29;;;;;;;18.17;7.63;;;21.80;99.90;;;;;;5053909;28;20083;-69
2022/08/26 06:36:57;;;;;;;18.25;7.82;;;21.90;99.90;;;;;;5048396;28;20041;-70
2022/08/26 06:39:22;;;;;;;17.63;8.25;;;21.90;99.90;;;;;;5035807;28;20378;-69
2022/08/26 06:41:48;;;;;;;20.42;6.95;;;21.90;99.90;;;;;;5042150;28;20034;-69
2022/08/26 06:44:14;;;;;;;19.35;7.60;;;22.00;99.90;;;;;;5019670;28;20553;-69
2022/08/26 06:46:41;;;;;;;22.40;7.47;;;22.00;99.90;;;;;;5013008;28;20081;-69
2022/08/26 06:49:07;;;;;;;15.52;7.75;;;22.00;99.90;;;;;;5014272;28;20076;-69
2022/08/26 06:51:36;;;;;;;18.92;6.95;;;22.00;99.90;;;;;;5034390;28;20469;-69
2022/08/26 06:54:03;;;;;;;18.23;7.65;;;22.00;99.90;;;;;;5037490;28;20397;-69
2022/08/26 06:56:34;;;;;;;16.77;7.90;;;22.00;99.90;;;;;;5038474;28;20136;-70
2022/08/26 06:59:00;;;;;;;19.48;8.38;;;22.00;99.90;;;;;;5022497;28;20394;-69
2022/08/26 07:01:30;;;;;;;21.27;8.13;;;21.90;99.90;;;;;;5018460;28;20049;-70
2022/08/26 07:03:59;;;;;;;18.30;8.15;;;22.00;99.90;;;;;;5023392;28;20033;-70
2022/08/26 07:06:27;;;;;;;20.10;8.48;;;22.00;99.90;;;;;;5031818;28;20045;-70
2022/08/26 07:09:00;;;;;;;21.83;9.48;;;21.90;99.90;;;;;;5033103;28;20045;-70
2022/08/26 07:11:27;;;;;;;19.48;8.27;;;21.90;99.90;;;;;;5013673;28;20061;-69
2022/08/26 07:13:53;;;;;;;23.48;7.40;;;21.80;99.90;;;;;;5033011;28;20042;-71
2022/08/26 07:16:20;;;;;;;19.92;6.90;;;21.80;99.90;;;;;;5031564;28;20490;-71
2022/08/26 07:18:47;;;;;;;20.92;7.22;;;21.80;99.90;;;;;;5014870;28;20091;-70
2022/08/26 07:21:16;;;;;;;13.77;5.93;;;21.80;99.90;;;;;;5031175;28;20088;-71
2022/08/26 07:23:42;;;;;;;16.95;5.60;;;21.80;99.90;;;;;;5030278;28;20045;-70
2022/08/26 07:26:10;;;;;;;22.63;5.45;;;21.90;99.90;;;;;;5041293;28;20043;-69
2022/08/26 07:28:37;;;;;;;16.98;5.22;;;21.90;99.90;;;;;;5015367;28;20437;-69
2022/08/26 07:31:07;;;;;;;19.00;5.70;;;21.90;99.90;;;;;;5030715;28;20049;-70
2022/08/26 07:33:34;;;;;;;13.85;5.05;;;21.90;99.90;;;;;;5032673;28;20121;-70
2022/08/26 07:35:59;;;;;;;12.88;4.60;;;22.00;99.90;;;;;;5032088;28;20098;-69
2022/08/26 07:38:25;;;;;;;13.30;4.75;;;22.00;99.90;;;;;;5012966;28;20125;-69
2022/08/26 07:40:51;;;;;;;15.40;5.70;;;22.00;99.90;;;;;;5021148;28;20452;-69
2022/08/26 07:43:17;;;;;;;18.45;4.63;;;22.10;99.90;;;;;;5031490;28;20033;-70
2022/08/26 07:45:43;;;;;;;14.82;4.57;;;22.10;99.90;;;;;;5032455;28;20039;-69
2022/08/26 07:48:08;;;;;;;14.63;4.63;;;22.10;99.90;;;;;;5030018;28;20037;-69
2022/08/26 07:50:34;;;;;;;14.30;4.90;;;22.10;99.90;;;;;;5031813;28;20053;-69
2022/08/26 07:53:01;;;;;;;13.95;4.65;;;22.00;99.90;;;;;;5032408;28;20539;-69
2022/08/26 07:55:27;;;;;;;15.70;4.95;;;22.10;99.90;;;;;;5041159;28;20063;-69
2022/08/26 07:57:53;;;;;;;13.20;4.63;;;22.00;99.90;;;;;;5033005;28;20052;-70
2022/08/26 08:00:20;;;;;;;13.75;3.80;;;22.10;99.90;;;;;;5030334;28;20072;-69
2022/08/26 08:02:46;;;;;;;11.13;3.50;;;22.10;99.90;;;;;;5032315;28;20049;-69
2022/08/26 08:05:15;;;;;;;11.70;3.72;;;22.10;99.90;;;;;;5030245;28;20111;-69
2022/08/26 08:07:41;;;;;;;11.70;3.17;;;22.20;99.90;;;;;;5010752;28;20033;-69
2022/08/26 08:10:07;;;;;;;12.30;3.10;;;22.20;99.90;;;;;;5030578;28;20548;-69
2022/08/26 08:12:33;;;;;;;12.68;3.38;;;22.20;99.90;;;;;;5032899;28;20041;-69
2022/08/26 08:14:59;;;;;;;11.73;3.20;;;22.30;99.90;;;;;;5049216;28;20160;-69
2022/08/26 08:17:24;;;;;;;14.32;3.45;;;22.30;99.90;;;;;;5034010;28;20049;-69
2022/08/26 08:19:50;;;;;;;12.63;3.15;;;22.20;99.90;;;;;;5031696;28;20080;-69
2022/08/26 08:22:16;;;;;;;15.73;2.78;;;22.20;99.90;;;;;;5041043;28;20140;-70
2022/08/26 08:24:42;;;;;;;9.38;2.75;;;22.20;99.90;;;;;;5033641;28;20490;-69
2022/08/26 08:27:08;;;;;;;14.60;3.40;;;22.30;99.90;;;;;;5036339;28;20038;-70
2022/08/26 08:29:35;;;;;;;11.85;3.20;;;22.40;99.90;;;;;;5036480;28;20049;-69
2022/08/26 08:32:02;;;;;;;14.15;3.22;;;22.40;99.90;;;;;;5035502;28;20049;-70
2022/08/26 08:34:28;;;;;;;12.48;2.55;;;22.40;99.90;;;;;;5044554;28;20045;-70
2022/08/26 08:36:55;;;;;;;14.20;3.00;;;22.50;99.90;;;;;;5039511;28;20064;-69
2022/08/26 08:39:22;;;;;;;9.68;2.60;;;22.50;99.90;;;;;;5034571;28;20046;-70
2022/08/26 08:42:09;;;;;;;9.73;2.60;;;22.60;99.90;;;;;;5034533;28;20044;-69
2022/08/26 08:44:38;;;;;;;8.73;2.47;;;22.60;99.90;;;;;;5016187;28;20455;-69
2022/08/26 08:47:15;;;;;;;8.38;2.58;;;22.50;99.90;;;;;;5030956;28;20078;-70
2022/08/26 08:49:41;;;;;;;11.02;2.72;;;22.50;99.90;;;;;;5034568;28;20228;-70
2022/08/26 08:52:26;;;;;;;10.98;2.58;;;22.50;99.90;;;;;;5029935;28;20575;-70
2022/08/26 08:54:53;;;;;;;11.57;2.67;;;22.60;99.90;;;;;;5031505;28;20409;-69
2022/08/26 08:57:39;;;;;;;12.45;2.75;;;22.50;99.90;;;;;;5034152;28;20452;-70
2022/08/26 09:00:13;;;;;;;11.82;2.58;;;22.60;99.90;;;;;;5033125;28;20064;-69
2022/08/26 09:02:48;;;;;;;12.13;2.63;;;22.60;99.90;;;;;;5046228;28;20040;-70
2022/08/26 09:05:30;;;;;;;9.10;2.55;;;22.70;99.90;;;;;;5033127;28;20172;-71
2022/08/26 09:08:10;;;;;;;8.38;2.50;;;22.60;99.90;;;;;;5032233;28;20049;-71
2022/08/26 09:10:39;;;;;;;11.32;2.60;;;22.50;99.90;;;;;;5031542;28;20049;-71
2022/08/26 09:13:11;;;;;;;9.93;2.40;;;22.40;99.90;;;;;;5032376;28;20053;-70
2022/08/26 09:15:55;;;;;;;15.05;2.50;;;22.40;99.90;;;;;;5032209;28;20052;-69
2022/08/26 09:18:29;;;;;;;10.30;2.42;;;22.30;99.90;;;;;;5039287;28;20041;-70
2022/08/26 09:21:07;;;;;;;11.40;2.72;;;22.30;99.90;;;;;;5032574;28;20095;-70
2022/08/26 09:23:36;;;;;;;10.90;2.60;;;22.20;99.90;;;;;;5032920;28;20053;-69
2022/08/26 09:26:29;;;;;;;14.82;3.03;;;22.20;99.90;;;;;;5032274;28;20085;-69
2022/08/26 09:28:58;;;;;;;9.50;2.47;;;22.20;99.90;;;;;;5024445;28;20050;-69
2022/08/26 09:31:35;;;;;;;8.90;2.50;;;22.10;99.90;;;;;;5034828;28;20045;-70
2022/08/26 09:34:13;;;;;;;10.13;2.72;;;22.10;99.90;;;;;;5034742;28;20450;-69
2022/08/26 09:36:45;;;;;;;13.20;2.65;;;22.10;99.90;;;;;;5034474;28;20458;-70
2022/08/26 09:39:37;;;;;;;13.20;2.92;;;22.10;99.90;;;;;;5034859;28;20065;-70
2022/08/26 09:42:21;;;;;;;10.23;2.75;;;22.10;99.90;;;;;;5047816;28;20502;-70
2022/08/26 09:45:05;;;;;;;11.43;2.78;;;22.10;99.90;;;;;;5034966;28;20088;-70
2022/08/26 09:47:30;;;;;;;11.40;2.80;;;22.00;99.90;;;;;;5034994;28;20424;-70
2022/08/26 09:50:05;;;;;;;12.60;2.72;;;22.10;99.90;;;;;;5034436;28;20053;-70
2022/08/26 09:52:31;;;;;;;12.60;2.87;;;22.10;99.90;;;;;;5033417;28;20122;-70
2022/08/26 09:55:11;;;;;;;14.40;2.90;;;22.10;99.90;;;;;;5033393;28;20317;-70
2022/08/26 09:57:47;;;;;;;9.95;2.97;;;22.20;99.90;;;;;;5014873;28;20037;-70
2022/08/26 10:00:37;;;;;;;10.07;2.42;;;22.20;99.90;;;;;;5014852;28;20050;-70
2022/08/26 10:03:08;;;;;;;9.88;2.65;;;22.30;99.90;;;;;;5013293;28;20057;-70
2022/08/26 10:05:42;;;;;;;12.90;3.00;;;22.20;99.90;;;;;;5014092;28;20042;-70
2022/08/26 10:08:37;;;;;;;16.23;3.35;;;22.20;99.90;;;;;;5013735;28;20038;-70
2022/08/26 10:11:14;;;;;;;15.57;2.90;;;22.10;99.90;;;;;;5012683;28;20425;-70
2022/08/26 10:13:46;;;;;;;15.73;2.97;;;22.00;99.90;;;;;;5013275;28;20042;-70
2022/08/26 10:16:37;;;;;;;14.93;2.85;;;22.10;99.90;;;;;;5014761;28;20096;-71
2022/08/26 10:19:10;;;;;;;12.02;2.60;;;22.10;99.90;;;;;;5014531;28;20054;-70
2022/08/26 10:21:49;;;;;;;15.35;3.08;;;22.00;99.90;;;;;;5013354;28;20045;-70
2022/08/26 10:24:22;;;;;;;16.08;3.30;;;21.90;99.90;;;;;;5013274;28;20085;-71
2022/08/26 10:27:20;;;;;;;10.35;2.55;;;22.00;99.90;;;;;;5014015;28;20052;-71
2022/08/26 10:29:49;;;;;;;11.40;2.95;;;22.00;99.90;;;;;;5000163;28;20061;-71
2022/08/26 10:32:33;;;;;;;9.13;2.25;;;21.90;99.90;;;;;;5011177;28;20046;-71
2022/08/26 10:35:00;;;;;;;9.68;2.20;;;22.00;99.90;;;;;;5009914;28;20057;-70
2022/08/26 10:37:36;;;;;;;7.50;2.40;;;22.00;99.90;;;;;;5010941;28;20037;-71
2022/08/26 10:40:11;;;;;;;10.55;2.67;;;22.00;99.90;;;;;;5017672;28;20484;-70
2022/08/26 10:42:48;;;;;;;9.60;2.40;;;22.00;99.90;;;;;;5028881;28;20041;-71
2022/08/26 10:45:18;;;;;;;11.27;2.92;;;22.10;99.90;;;;;;5030119;28;20056;-71
2022/08/26 10:47:56;;;;;;;10.68;2.92;;;22.20;99.90;;;;;;5025552;28;20057;-71
2022/08/26 10:50:44;;;;;;;12.82;2.90;;;22.20;99.90;;;;;;5011582;28;20113;-71
2022/08/26 10:53:48;;;;;;;7.80;2.38;;;22.20;99.90;;;;;;5026717;28;20088;-71
2022/08/26 10:56:41;;;;;;;11.35;2.78;;;22.20;99.90;;;;;;5017975;28;20068;-71
2022/08/26 10:59:54;;;;;;;11.07;2.88;;;22.30;99.90;;;;;;5030175;28;20037;-70
2022/08/26 11:02:40;;;;;;;10.90;2.60;;;22.30;99.90;;;;;;4981663;28;20054;-69
2022/08/26 11:05:17;;;;;;;10.13;2.90;;;22.30;99.90;;;;;;5029806;28;20049;-68
2022/08/26 11:07:45;;;;;;;12.63;2.78;;;22.30;99.90;;;;;;5029939;28;20049;-69
2022/08/26 11:10:19;;;;;;;14.25;3.17;;;22.40;99.90;;;;;;5030228;28;20091;-69
2022/08/26 11:12:55;;;;;;;10.32;2.97;;;22.40;99.90;;;;;;5029748;28;20049;-69
2022/08/26 11:15:20;;;;;;;10.23;3.13;;;22.40;99.90;;;;;;5027964;28;20083;-73
2022/08/26 11:17:46;;;;;;;8.68;3.03;;;22.50;99.90;;;;;;5029251;28;20433;-68
2022/08/26 11:20:26;;;;;;;9.68;3.05;;;22.60;99.90;;;;;;5031121;28;20064;-69
2022/08/26 11:22:53;;;;;;;13.13;2.95;;;22.70;99.90;;;;;;5027526;28;20063;-69
2022/08/26 11:25:24;;;;;;;11.65;3.40;;;22.70;99.90;;;;;;5012093;28;20038;-69
2022/08/26 11:27:58;;;;;;;8.00;2.60;;;22.70;99.90;;;;;;5026944;28;20078;-69
2022/08/26 11:30:24;;;;;;;20.52;2.70;;;22.70;99.90;;;;;;5011587;28;20042;-69
2022/08/26 11:32:57;;;;;;;12.25;2.85;;;22.70;99.90;;;;;;5011708;28;20050;-69
2022/08/26 11:35:23;;;;;;;10.40;2.70;;;22.70;99.90;;;;;;5012247;28;20133;-69
2022/08/26 11:37:56;;;;;;;11.15;2.60;;;22.60;99.90;;;;;;5012274;28;20145;-69
2022/08/26 11:40:37;;;;;;;11.25;3.00;;;22.40;99.90;;;;;;5011907;28;20064;-69
2022/08/26 11:43:20;;;;;;;10.43;2.80;;;22.50;99.90;;;;;;5011086;28;20046;-69
2022/08/26 11:45:58;;;;;;;10.15;2.95;;;22.50;99.90;;;;;;5012917;28;20057;-69
2022/08/26 11:48:37;;;;;;;10.45;2.60;;;22.40;99.90;;;;;;5012823;28;20433;-69
2022/08/26 11:51:07;;;;;;;11.23;3.10;;;22.30;99.90;;;;;;5012695;28;20046;-69
2022/08/26 11:53:36;;;;;;;10.65;2.85;;;22.30;99.90;;;;;;5012492;28;20081;-69
2022/08/26 11:56:16;;;;;;;8.68;2.58;;;22.20;99.90;;;;;;5012691;28;20048;-69
2022/08/26 11:58:43;;;;;;;13.02;2.92;;;22.10;99.90;;;;;;4994819;28;20046;-69
2022/08/26 12:01:12;;;;;;;8.02;2.33;;;21.90;99.90;;;;;;5011714;28;20080;-69
2022/08/26 12:03:43;;;;;;;6.38;2.50;;;22.00;99.90;;;;;;5012556;28;20394;-68
2022/08/26 12:06:21;;;;;;;6.85;2.55;;;21.90;99.90;;;;;;5011343;28;20061;-69
2022/08/26 12:08:48;;;;;;;9.48;2.83;;;21.90;99.90;;;;;;5012770;28;20042;-68
2022/08/26 12:11:21;;;;;;;9.98;2.83;;;21.80;99.90;;;;;;5012604;28;20046;-68
2022/08/26 12:14:03;;;;;;;9.30;2.47;;;21.90;99.90;;;;;;5010936;28;20061;-68
2022/08/26 12:16:35;;;;;;;9.13;2.50;;;22.00;99.90;;;;;;5012406;28;20057;-71
2022/08/26 12:19:19;;;;;;;6.78;2.42;;;22.00;99.90;;;;;;5012402;28;20046;-69
2022/08/26 12:21:47;;;;;;;10.38;2.67;;;22.00;99.90;;;;;;5012760;28;20038;-69
2022/08/26 12:24:19;;;;;;;12.00;3.00;;;22.00;99.90;;;;;;5012512;28;20050;-69
2022/08/26 12:26:45;;;;;;;15.35;2.72;;;22.00;99.90;;;;;;5012478;28;20068;-69
2022/08/26 12:29:26;;;;;;;14.38;3.22;;;21.80;99.90;;;;;;5010741;28;20057;-69
2022/08/26 12:32:07;;;;;;;8.68;2.55;;;21.70;99.90;;;;;;5012266;28;20053;-69
2022/08/26 12:34:33;;;;;;;7.25;2.30;;;21.60;99.90;;;;;;5012512;28;20095;-68
2022/08/26 12:36:58;;;;;;;13.15;2.53;;;21.60;99.90;;;;;;5012136;28;20125;-69
2022/08/26 12:39:35;;;;;;;9.30;2.25;;;21.60;99.90;;;;;;5012481;28;20128;-71
2022/08/26 12:42:02;;;;;;;9.57;2.38;;;21.60;99.90;;;;;;5010845;28;20038;-70
2022/08/26 12:44:41;;;;;;;8.02;2.42;;;21.60;99.90;;;;;;5012148;28;20057;-70
2022/08/26 12:47:16;;;;;;;7.75;2.20;;;21.50;99.90;;;;;;5011590;28;20446;-70
2022/08/26 12:49:42;;;;;;;7.82;2.17;;;21.50;99.90;;;;;;5011539;28;20104;-70
2022/08/26 12:52:29;;;;;;;6.93;2.20;;;21.50;99.90;;;;;;5012095;28;20498;-70
2022/08/26 12:54:57;;;;;;;6.80;2.10;;;21.50;99.90;;;;;;5020420;28;20037;-70